createdAt,value
2017-02-23T00:00:52.254Z,0
2017-02-23T00:01:52.352Z,0
2017-02-23T00:02:52.190Z,0
2017-02-23T00:03:52.180Z,0
2017-02-23T00:04:52.331Z,0
2017-02-23T00:05:52.162Z,0.19
2017-02-23T00:06:52.141Z,0.28
2017-02-23T00:07:52.248Z,0.76
2017-02-23T00:08:52.119Z,1.8
2017-02-23T00:09:52.110Z,1.9
2017-02-23T00:10:52.193Z,1.14
2017-02-23T00:11:52.084Z,0.28
2017-02-23T00:12:52.086Z,0
2017-02-23T00:13:52.550Z,0
2017-02-23T00:14:52.050Z,0
2017-02-23T00:15:52.046Z,0
2017-02-23T00:16:52.483Z,0
2017-02-23T00:17:52.027Z,0
2017-02-23T00:18:52.016Z,0
2017-02-23T00:19:52.530Z,0
2017-02-23T00:20:51.984Z,0
2017-02-23T00:21:51.975Z,0
2017-02-23T00:22:51.962Z,0
2017-02-23T00:23:51.949Z,0.85
2017-02-23T00:24:51.946Z,1.32
2017-02-23T00:25:51.926Z,1.51
2017-02-23T00:26:51.524Z,1.7
2017-02-23T00:27:51.901Z,1.61
2017-02-23T00:28:51.890Z,1.51
2017-02-23T00:29:51.877Z,0.66
2017-02-23T00:30:51.878Z,0
2017-02-23T00:31:51.860Z,0
2017-02-23T00:32:51.840Z,0.28
2017-02-23T00:33:51.830Z,0
2017-02-23T00:34:51.819Z,0
2017-02-23T00:35:51.906Z,0
2017-02-23T00:36:51.797Z,0
2017-02-23T00:37:51.787Z,0
2017-02-23T00:38:51.883Z,0
2017-02-23T00:39:51.762Z,0
2017-02-23T00:40:51.752Z,0
2017-02-23T00:41:51.842Z,0
2017-02-23T00:42:51.336Z,0
2017-02-23T00:43:51.714Z,0
2017-02-23T00:44:51.837Z,0
2017-02-23T00:45:51.692Z,0
2017-02-23T00:46:51.691Z,0
2017-02-23T00:47:51.777Z,0
2017-02-23T00:48:51.657Z,0
2017-02-23T00:49:51.647Z,0
2017-02-23T00:50:51.984Z,0
2017-02-23T00:51:51.623Z,0
2017-02-23T00:52:51.631Z,0
2017-02-23T00:53:51.737Z,0
2017-02-23T00:54:51.589Z,0
2017-02-23T00:55:51.578Z,0
2017-02-23T00:56:51.767Z,0
2017-02-23T00:57:51.555Z,0
2017-02-23T00:58:51.561Z,0
2017-02-23T00:59:51.882Z,0
2017-02-23T01:00:51.519Z,0.57
2017-02-23T01:01:51.505Z,1.7
2017-02-23T01:02:51.509Z,2.18
2017-02-23T01:03:51.483Z,2.56
2017-02-23T01:04:51.886Z,2.94
2017-02-23T01:05:51.461Z,3.41
2017-02-23T01:06:51.452Z,3.32
2017-02-23T01:07:51.684Z,3.51
2017-02-23T01:08:51.427Z,3.13
2017-02-23T01:09:51.414Z,3.89
2017-02-23T01:10:51.369Z,4.08
2017-02-23T01:11:51.405Z,5.12
2017-02-23T01:12:51.389Z,5.6
2017-02-23T01:13:51.292Z,6.93
2017-02-23T01:14:51.356Z,6.45
2017-02-23T01:15:51.347Z,7.21
2017-02-23T01:16:51.742Z,8.16
2017-02-23T01:17:51.324Z,8.16
2017-02-23T01:18:51.832Z,8.07
2017-02-23T01:19:51.305Z,8.83
2017-02-23T01:20:51.296Z,8.35
2017-02-23T01:21:51.814Z,8.16
2017-02-23T01:22:51.265Z,9.97
2017-02-23T01:23:51.257Z,9.39
2017-02-23T01:24:51.204Z,10.91
2017-02-23T01:25:51.230Z,11.2
2017-02-23T01:26:51.223Z,10.53
2017-02-23T01:27:51.109Z,10.63
2017-02-23T01:28:51.195Z,10.16
2017-02-23T01:29:51.190Z,10.63
2017-02-23T01:30:51.173Z,10.35
2017-02-23T01:31:51.162Z,10.25
2017-02-23T01:32:51.173Z,10.63
2017-02-23T01:33:51.152Z,11.2
2017-02-23T01:34:51.126Z,11.58
2017-02-23T01:35:51.119Z,11.58
2017-02-23T01:36:51.107Z,10.91
2017-02-23T01:37:51.096Z,10.63
2017-02-23T01:38:51.098Z,10.44
2017-02-23T01:39:51.072Z,9.39
2017-02-23T01:40:51.061Z,10.06
2017-02-23T01:41:51.051Z,9.49
2017-02-23T01:42:51.036Z,9.39
2017-02-23T01:43:51.032Z,9.01
2017-02-23T01:44:51.018Z,9.87
2017-02-23T01:45:51.003Z,9.2
2017-02-23T01:46:50.992Z,8.73
2017-02-23T01:47:50.987Z,7.97
2017-02-23T01:48:50.969Z,7.21
2017-02-23T01:49:50.957Z,6.64
2017-02-23T01:50:50.550Z,6.17
2017-02-23T01:51:50.947Z,5.6
2017-02-23T01:52:50.923Z,5.41
2017-02-23T01:53:50.913Z,4.93
2017-02-23T01:54:50.904Z,5.12
2017-02-23T01:55:50.891Z,4.08
2017-02-23T01:56:50.892Z,3.7
2017-02-23T01:57:50.870Z,3.41
2017-02-23T01:58:50.869Z,3.41
2017-02-23T01:59:50.848Z,3.61
2017-02-23T02:00:50.833Z,3.32
2017-02-23T02:01:50.822Z,3.41
2017-02-23T02:02:50.813Z,2.56
2017-02-23T02:03:50.801Z,1.9
2017-02-23T02:04:50.788Z,1.61
2017-02-23T02:05:50.775Z,0.85
2017-02-23T02:06:50.765Z,0.38
2017-02-23T02:07:50.756Z,0.09
2017-02-23T02:08:50.745Z,0.66
2017-02-23T02:09:50.744Z,0.85
2017-02-23T02:10:50.723Z,0.76
2017-02-23T02:11:50.706Z,0
2017-02-23T02:12:50.707Z,0
2017-02-23T02:13:50.703Z,0
2017-02-23T02:14:50.683Z,0
2017-02-23T02:15:50.663Z,0
2017-02-23T02:16:50.651Z,0
2017-02-23T02:17:50.640Z,0
2017-02-23T02:18:50.628Z,0
2017-02-23T02:19:50.619Z,0.09
2017-02-23T02:20:50.616Z,0.28
2017-02-23T02:21:50.595Z,1.32
2017-02-23T02:22:50.592Z,1.23
2017-02-23T02:23:50.584Z,0.76
2017-02-23T02:24:50.560Z,0.76
2017-02-23T02:25:50.553Z,0.66
2017-02-23T02:26:50.535Z,2.37
2017-02-23T02:27:50.535Z,2.47
2017-02-23T02:28:50.530Z,2.66
2017-02-23T02:29:50.502Z,2.56
2017-02-23T02:30:50.490Z,2.66
2017-02-23T02:31:50.482Z,2.09
2017-02-23T02:32:50.468Z,1.51
2017-02-23T02:33:50.457Z,1.51
2017-02-23T02:34:50.477Z,1.42
2017-02-23T02:35:50.433Z,1.23
2017-02-23T02:36:50.430Z,1.23
2017-02-23T02:37:50.408Z,0.47
2017-02-23T02:38:50.401Z,0.19
2017-02-23T02:39:50.389Z,0
2017-02-23T02:40:50.385Z,0
2017-02-23T02:41:50.757Z,0
2017-02-23T02:42:50.352Z,0
2017-02-23T02:43:50.488Z,0
2017-02-23T02:44:50.325Z,0
2017-02-23T02:45:50.319Z,0
2017-02-23T02:46:50.806Z,0
2017-02-23T02:47:50.301Z,0
2017-02-23T02:48:50.283Z,0
2017-02-23T02:49:50.675Z,0.57
2017-02-23T02:50:50.266Z,0.95
2017-02-23T02:51:50.258Z,1.14
2017-02-23T02:52:50.270Z,1.04
2017-02-23T02:53:50.480Z,1.42
2017-02-23T02:54:50.187Z,2.37
2017-02-23T02:55:50.201Z,3.41
2017-02-23T02:56:50.119Z,3.51
2017-02-23T02:57:50.333Z,3.41
2017-02-23T02:58:50.169Z,3.51
2017-02-23T02:59:50.170Z,4.27
2017-02-23T03:00:50.283Z,4.36
2017-02-23T03:01:50.134Z,4.08
2017-02-23T03:02:50.127Z,4.17
2017-02-23T03:03:50.110Z,4.27
2017-02-23T03:04:49.802Z,4.55
2017-02-23T03:05:50.087Z,5.22
2017-02-23T03:06:50.090Z,6.36
2017-02-23T03:07:49.974Z,6.17
2017-02-23T03:08:50.061Z,5.98
2017-02-23T03:09:50.040Z,6.26
2017-02-23T03:10:50.483Z,6.64
2017-02-23T03:11:50.131Z,6.83
2017-02-23T03:12:50.395Z,6.55
2017-02-23T03:13:50.160Z,6.64
2017-02-23T03:14:49.996Z,7.5
2017-02-23T03:15:49.973Z,7.4
2017-02-23T03:16:50.391Z,7.03
2017-02-23T03:17:49.954Z,6.74
2017-02-23T03:18:50.002Z,6.83
2017-02-23T03:19:50.088Z,8.54
2017-02-23T03:20:49.917Z,8.26
2017-02-23T03:21:49.904Z,7.59
2017-02-23T03:22:50.064Z,7.59
2017-02-23T03:23:50.203Z,7.5
2017-02-23T03:24:49.871Z,7.5
2017-02-23T03:25:49.863Z,6.83
2017-02-23T03:26:49.852Z,5.88
2017-02-23T03:27:49.837Z,5.69
2017-02-23T03:28:49.828Z,5.32
2017-02-23T03:29:49.825Z,4.93
2017-02-23T03:30:49.802Z,4.93
2017-02-23T03:31:49.791Z,3.99
2017-02-23T03:32:49.780Z,3.99
2017-02-23T03:33:49.877Z,3.32
2017-02-23T03:34:49.360Z,3.61
2017-02-23T03:35:49.744Z,3.03
2017-02-23T03:36:49.863Z,3.22
2017-02-23T03:37:49.726Z,2.47
2017-02-23T03:38:49.708Z,2.56
2017-02-23T03:39:50.185Z,1.99
2017-02-23T03:40:49.687Z,1.8
2017-02-23T03:41:49.677Z,0.57
2017-02-23T03:42:50.125Z,0.19
2017-02-23T03:43:49.662Z,0
2017-02-23T03:44:49.641Z,0
2017-02-23T03:45:50.140Z,0
2017-02-23T03:46:49.617Z,0
2017-02-23T03:47:49.611Z,0
2017-02-23T03:48:50.135Z,0
2017-02-23T03:49:49.586Z,0
2017-02-23T03:50:49.708Z,0
2017-02-23T03:51:49.561Z,0
2017-02-23T03:52:49.549Z,0
2017-02-23T03:53:49.974Z,0
2017-02-23T03:54:49.534Z,0
2017-02-23T03:55:49.523Z,0
2017-02-23T03:56:50.062Z,0
2017-02-23T03:57:49.492Z,0
2017-02-23T03:58:49.481Z,0
2017-02-23T03:59:49.960Z,0
2017-02-23T04:00:49.458Z,0
2017-02-23T04:01:49.447Z,0
2017-02-23T04:02:49.849Z,0
2017-02-23T04:03:49.422Z,0
2017-02-23T04:04:49.424Z,0
2017-02-23T04:05:49.787Z,0
2017-02-23T04:06:49.403Z,0
2017-02-23T04:07:49.378Z,0
2017-02-23T04:08:49.925Z,0
2017-02-23T04:09:49.357Z,0
2017-02-23T04:10:49.342Z,0
2017-02-23T04:11:49.333Z,0
2017-02-23T04:12:49.318Z,0
2017-02-23T04:13:48.910Z,0
2017-02-23T04:14:49.299Z,0
2017-02-23T04:15:49.282Z,0
2017-02-23T04:16:49.272Z,0
2017-02-23T04:17:49.258Z,0
2017-02-23T04:18:49.247Z,0
2017-02-23T04:19:49.236Z,0
2017-02-23T04:20:49.232Z,0
2017-02-23T04:21:49.220Z,0
2017-02-23T04:22:49.202Z,0
2017-02-23T04:23:49.191Z,0
2017-02-23T04:24:49.178Z,0
2017-02-23T04:25:49.167Z,0
2017-02-23T04:26:49.157Z,0
2017-02-23T04:27:49.146Z,0
2017-02-23T04:28:49.139Z,0
2017-02-23T04:29:49.129Z,0
2017-02-23T04:30:49.113Z,0
2017-02-23T04:31:49.098Z,0
2017-02-23T04:32:49.088Z,0
2017-02-23T04:33:49.074Z,0
2017-02-23T04:34:48.663Z,0
2017-02-23T04:35:49.052Z,0
2017-02-23T04:36:49.037Z,0
2017-02-23T04:37:49.029Z,0
2017-02-23T04:38:49.014Z,0
2017-02-23T04:39:49.004Z,0
2017-02-23T04:40:49.000Z,0
2017-02-23T04:41:48.585Z,0
2017-02-23T04:42:48.972Z,0
2017-02-23T04:43:48.562Z,0
2017-02-23T04:44:48.560Z,0
2017-02-23T04:45:48.547Z,0
2017-02-23T04:46:48.929Z,0
2017-02-23T04:47:48.910Z,0
2017-02-23T04:48:48.515Z,0
2017-02-23T04:49:48.889Z,0
2017-02-23T04:50:48.888Z,0
2017-02-23T04:51:48.468Z,0
2017-02-23T04:52:48.848Z,0
2017-02-23T04:53:48.841Z,0
2017-02-23T04:54:48.430Z,0
2017-02-23T04:55:48.816Z,0
2017-02-23T04:56:48.418Z,0
2017-02-23T04:57:48.399Z,0
2017-02-23T04:58:48.384Z,0
2017-02-23T04:59:48.372Z,0
2017-02-23T05:00:48.362Z,0
2017-02-23T05:01:48.364Z,0
2017-02-23T05:02:48.737Z,0
2017-02-23T05:03:48.730Z,0
2017-02-23T05:04:48.714Z,0
2017-02-23T05:05:48.702Z,0
2017-02-23T05:06:48.697Z,0
2017-02-23T05:07:48.676Z,0
2017-02-23T05:08:48.664Z,0
2017-02-23T05:09:48.652Z,0
2017-02-23T05:10:48.641Z,0
2017-02-23T05:11:48.632Z,0
2017-02-23T05:12:48.625Z,0
2017-02-23T05:13:48.209Z,0
2017-02-23T05:14:48.599Z,0
2017-02-23T05:15:48.581Z,0
2017-02-23T05:16:48.590Z,0
2017-02-23T05:17:48.561Z,0.19
2017-02-23T05:18:48.556Z,0
2017-02-23T05:19:48.592Z,0
2017-02-23T05:20:48.537Z,0
2017-02-23T05:21:48.514Z,0.57
2017-02-23T05:22:48.499Z,0.57
2017-02-23T05:23:48.493Z,0.19
2017-02-23T05:24:48.489Z,0
2017-02-23T05:25:48.467Z,0.19
2017-02-23T05:26:48.455Z,0
2017-02-23T05:27:48.444Z,0
2017-02-23T05:28:48.436Z,0.47
2017-02-23T05:29:48.420Z,0.76
2017-02-23T05:30:48.410Z,0.47
2017-02-23T05:31:48.428Z,0
2017-02-23T05:32:48.387Z,0
2017-02-23T05:33:48.375Z,0
2017-02-23T05:34:48.365Z,0
2017-02-23T05:35:48.357Z,0
2017-02-23T05:36:48.343Z,0
2017-02-23T05:37:48.330Z,0.28
2017-02-23T05:38:48.325Z,0
2017-02-23T05:39:48.304Z,0
2017-02-23T05:40:48.293Z,0.95
2017-02-23T05:41:48.290Z,1.14
2017-02-23T05:42:48.283Z,0.95
2017-02-23T05:43:48.259Z,0.09
2017-02-23T05:44:48.255Z,0
2017-02-23T05:45:48.237Z,0
2017-02-23T05:46:48.225Z,0
2017-02-23T05:47:48.230Z,0
2017-02-23T05:48:48.213Z,0
2017-02-23T05:49:48.191Z,0
2017-02-23T05:50:48.177Z,0
2017-02-23T05:51:48.169Z,0
2017-02-23T05:52:48.156Z,0
2017-02-23T05:53:48.143Z,0
2017-02-23T05:54:48.133Z,0
2017-02-23T05:55:48.122Z,0
2017-02-23T05:56:48.108Z,0
2017-02-23T05:57:48.099Z,0
2017-02-23T05:58:48.085Z,0
2017-02-23T05:59:48.076Z,0
2017-02-23T06:00:48.067Z,0
2017-02-23T06:01:47.653Z,0
2017-02-23T06:02:48.045Z,0
2017-02-23T06:03:48.028Z,0
2017-02-23T06:04:48.024Z,0
2017-02-23T06:05:48.006Z,0
2017-02-23T06:06:47.997Z,0
2017-02-23T06:07:47.982Z,0
2017-02-23T06:08:47.971Z,0
2017-02-23T06:09:47.958Z,0
2017-02-23T06:10:47.956Z,0
2017-02-23T06:11:47.540Z,0
2017-02-23T06:12:47.924Z,0
2017-02-23T06:13:47.913Z,0
2017-02-23T06:14:47.902Z,0
2017-02-23T06:15:47.491Z,0
2017-02-23T06:16:47.877Z,0
2017-02-23T06:17:47.863Z,0
2017-02-23T06:18:47.460Z,0
2017-02-23T06:19:47.454Z,0
2017-02-23T06:20:47.443Z,0
2017-02-23T06:21:47.819Z,0
2017-02-23T06:22:47.422Z,0
2017-02-23T06:23:47.799Z,0
2017-02-23T06:24:47.404Z,0
2017-02-23T06:25:47.778Z,0
2017-02-23T06:26:47.371Z,0
2017-02-23T06:27:47.355Z,0
2017-02-23T06:28:47.341Z,0
2017-02-23T06:29:47.325Z,0
2017-02-23T06:30:47.315Z,0
2017-02-23T06:31:47.312Z,0
2017-02-23T06:32:47.704Z,0
2017-02-23T06:33:47.681Z,0
2017-02-23T06:34:47.675Z,0
2017-02-23T06:35:47.666Z,0
2017-02-23T06:36:47.655Z,0
2017-02-23T06:37:47.638Z,0
2017-02-23T06:38:47.622Z,0
2017-02-23T06:39:47.606Z,0
2017-02-23T06:40:47.605Z,0
2017-02-23T06:41:47.584Z,0
2017-02-23T06:42:47.571Z,0
2017-02-23T06:43:47.571Z,0
2017-02-23T06:44:47.555Z,0
2017-02-23T06:45:47.536Z,0
2017-02-23T06:46:47.529Z,0
2017-02-23T06:47:47.517Z,0
2017-02-23T06:48:47.500Z,0
2017-02-23T06:49:47.490Z,0
2017-02-23T06:50:47.482Z,0
2017-02-23T06:51:47.465Z,0
2017-02-23T06:52:47.461Z,0
2017-02-23T06:53:47.447Z,0
2017-02-23T06:54:47.430Z,0
2017-02-23T06:55:47.417Z,0
2017-02-23T06:56:47.406Z,0
2017-02-23T06:57:47.392Z,0
2017-02-23T06:58:47.380Z,0
2017-02-23T06:59:47.383Z,0
2017-02-23T07:00:47.358Z,0
2017-02-23T07:01:47.344Z,0
2017-02-23T07:02:47.334Z,0
2017-02-23T07:03:47.331Z,0
2017-02-23T07:04:47.311Z,0
2017-02-23T07:05:47.299Z,0
2017-02-23T07:06:47.287Z,0
2017-02-23T07:07:47.275Z,0
2017-02-23T07:08:47.267Z,0
2017-02-23T07:09:47.255Z,0
2017-02-23T07:10:47.239Z,0
2017-02-23T07:11:47.227Z,0
2017-02-23T07:12:47.214Z,0
2017-02-23T07:13:47.207Z,0
2017-02-23T07:14:47.202Z,0
2017-02-23T07:15:47.181Z,0
2017-02-23T07:16:47.180Z,0
2017-02-23T07:17:47.166Z,0
2017-02-23T07:18:47.150Z,0
2017-02-23T07:19:47.135Z,0
2017-02-23T07:20:47.119Z,0
2017-02-23T07:21:47.111Z,0
2017-02-23T07:22:47.095Z,0
2017-02-23T07:23:47.086Z,0
2017-02-23T07:24:47.076Z,0
2017-02-23T07:25:46.672Z,0
2017-02-23T07:26:47.050Z,0
2017-02-23T07:27:47.039Z,0
2017-02-23T07:28:47.051Z,0
2017-02-23T07:29:47.013Z,0
2017-02-23T07:30:47.002Z,0
2017-02-23T07:31:46.992Z,0
2017-02-23T07:32:46.980Z,0
2017-02-23T07:33:46.966Z,0
2017-02-23T07:34:46.954Z,0
2017-02-23T07:35:46.942Z,0
2017-02-23T07:36:46.939Z,0
2017-02-23T07:37:46.928Z,0
2017-02-23T07:38:46.923Z,0
2017-02-23T07:39:46.509Z,0
2017-02-23T07:40:46.885Z,0
2017-02-23T07:41:46.873Z,0
2017-02-23T07:42:46.860Z,0
2017-02-23T07:43:46.854Z,0
2017-02-23T07:44:46.846Z,0
2017-02-23T07:45:46.827Z,0
2017-02-23T07:46:46.817Z,0
2017-02-23T07:47:46.802Z,0
2017-02-23T07:48:46.791Z,0
2017-02-23T07:49:46.778Z,0
2017-02-23T07:50:46.772Z,0
2017-02-23T07:51:46.757Z,0
2017-02-23T07:52:46.344Z,0
2017-02-23T07:53:46.744Z,0
2017-02-23T07:54:46.720Z,0
2017-02-23T07:55:46.709Z,0
2017-02-23T07:56:46.698Z,0
2017-02-23T07:57:46.289Z,0.66
2017-02-23T07:58:46.674Z,2.09
2017-02-23T07:59:46.660Z,5.51
2017-02-23T08:00:46.652Z,9.02
2017-02-23T08:01:46.640Z,8.92
2017-02-23T08:02:46.649Z,8.17
2017-02-23T08:03:46.620Z,5.32
2017-02-23T08:04:46.607Z,4.36
2017-02-23T08:05:46.599Z,3.89
2017-02-23T08:06:46.583Z,10.16
2017-02-23T08:07:46.581Z,11.3
2017-02-23T08:08:46.568Z,9.78
2017-02-23T08:09:46.551Z,9.78
2017-02-23T08:10:46.539Z,8.17
2017-02-23T08:11:46.528Z,9.59
2017-02-23T08:12:46.525Z,9.78
2017-02-23T08:13:46.505Z,11.01
2017-02-23T08:14:46.494Z,9.88
2017-02-23T08:15:46.484Z,8.73
2017-02-23T08:16:46.472Z,9.59
2017-02-23T08:17:46.464Z,8.64
2017-02-23T08:18:46.451Z,8.92
2017-02-23T08:19:46.437Z,7.68
2017-02-23T08:20:46.441Z,7.12
2017-02-23T08:21:46.416Z,7.12
2017-02-23T08:22:46.406Z,7.5
2017-02-23T08:23:46.394Z,6.55
2017-02-23T08:24:46.392Z,6.83
2017-02-23T08:25:46.384Z,6.26
2017-02-23T08:26:46.368Z,4.17
2017-02-23T08:27:46.348Z,3.51
2017-02-23T08:28:46.335Z,3.03
2017-02-23T08:29:46.335Z,2.47
2017-02-23T08:30:46.326Z,4.17
2017-02-23T08:31:45.907Z,4.93
2017-02-23T08:32:46.293Z,5.79
2017-02-23T08:33:46.284Z,5.03
2017-02-23T08:34:46.269Z,4.27
2017-02-23T08:35:46.262Z,4.27
2017-02-23T08:36:46.246Z,4.46
2017-02-23T08:37:46.236Z,3.61
2017-02-23T08:38:45.829Z,3.03
2017-02-23T08:39:46.227Z,3.89
2017-02-23T08:40:46.201Z,3.51
2017-02-23T08:41:46.190Z,2.94
2017-02-23T08:42:46.190Z,3.41
2017-02-23T08:43:46.167Z,2.56
2017-02-23T08:44:46.159Z,1.8
2017-02-23T08:45:46.148Z,0.38
2017-02-23T08:46:46.133Z,0
2017-02-23T08:47:46.129Z,0
2017-02-23T08:48:46.115Z,0
2017-02-23T08:49:46.100Z,0
2017-02-23T08:50:46.097Z,0
2017-02-23T08:51:46.085Z,0
2017-02-23T08:52:46.077Z,1.7
2017-02-23T08:53:46.060Z,2.56
2017-02-23T08:54:46.039Z,5.12
2017-02-23T08:55:46.041Z,4.17
2017-02-23T08:56:46.013Z,3.51
2017-02-23T08:57:46.005Z,3.13
2017-02-23T08:58:45.991Z,2.28
2017-02-23T08:59:45.992Z,4.93
2017-02-23T09:00:45.987Z,5.98
2017-02-23T09:01:45.959Z,9.3
2017-02-23T09:02:45.990Z,9.11
2017-02-23T09:03:45.934Z,8.64
2017-02-23T09:04:45.926Z,7.97
2017-02-23T09:05:45.924Z,7.5
2017-02-23T09:06:45.906Z,9.11
2017-02-23T09:07:45.888Z,8.54
2017-02-23T09:08:45.876Z,7.78
2017-02-23T09:09:45.869Z,7.68
2017-02-23T09:10:45.855Z,8.45
2017-02-23T09:11:45.841Z,8.07
2017-02-23T09:12:45.833Z,6.74
2017-02-23T09:13:45.822Z,7.31
2017-02-23T09:14:45.808Z,8.16
2017-02-23T09:15:45.799Z,8.92
2017-02-23T09:16:45.784Z,8.54
2017-02-23T09:17:45.772Z,9.2
2017-02-23T09:18:45.760Z,7.4
2017-02-23T09:19:45.758Z,5.41
2017-02-23T09:20:45.735Z,6.26
2017-02-23T09:21:45.726Z,6.45
2017-02-23T09:22:45.716Z,6.45
2017-02-23T09:23:45.711Z,6.17
2017-02-23T09:24:45.696Z,4.93
2017-02-23T09:25:45.678Z,4.46
2017-02-23T09:26:45.671Z,4.55
2017-02-23T09:27:45.669Z,4.74
2017-02-23T09:28:45.648Z,4.93
2017-02-23T09:29:45.634Z,3.98
2017-02-23T09:30:45.633Z,5.41
2017-02-23T09:31:45.613Z,5.6
2017-02-23T09:32:45.598Z,5.02
2017-02-23T09:33:45.599Z,4.17
2017-02-23T09:34:45.580Z,3.22
2017-02-23T09:35:45.570Z,3.41
2017-02-23T09:36:45.549Z,4.36
2017-02-23T09:37:45.538Z,4.17
2017-02-23T09:38:45.533Z,5.88
2017-02-23T09:39:45.514Z,7.87
2017-02-23T09:40:45.504Z,7.59
2017-02-23T09:41:45.494Z,8.63
2017-02-23T09:42:45.479Z,7.31
2017-02-23T09:43:45.474Z,7.21
2017-02-23T09:44:45.458Z,7.59
2017-02-23T09:45:45.445Z,6.83
2017-02-23T09:46:45.434Z,7.97
2017-02-23T09:47:45.419Z,9.48
2017-02-23T09:48:45.411Z,8.63
2017-02-23T09:49:45.396Z,7.4
2017-02-23T09:50:45.394Z,5.5
2017-02-23T09:51:44.976Z,4.83
2017-02-23T09:52:45.367Z,5.12
2017-02-23T09:53:45.365Z,6.16
2017-02-23T09:54:45.347Z,5.31
2017-02-23T09:55:45.325Z,5.41
2017-02-23T09:56:45.313Z,4.93
2017-02-23T09:57:45.302Z,4.46
2017-02-23T09:58:45.296Z,5.31
2017-02-23T09:59:45.283Z,7.02
2017-02-23T10:00:45.277Z,7.31
2017-02-23T10:01:45.256Z,7.59
2017-02-23T10:02:45.249Z,7.87
2017-02-23T10:03:45.232Z,7.59
2017-02-23T10:04:45.217Z,5.41
2017-02-23T10:05:45.209Z,4.36
2017-02-23T10:06:45.196Z,3.22
2017-02-23T10:07:45.204Z,3.51
2017-02-23T10:08:45.178Z,3.6
2017-02-23T10:09:45.159Z,3.7
2017-02-23T10:10:45.149Z,6.35
2017-02-23T10:11:45.137Z,9.77
2017-02-23T10:12:45.125Z,11.67
2017-02-23T10:13:45.120Z,10.25
2017-02-23T10:14:45.100Z,9.3
2017-02-23T10:15:45.089Z,8.92
2017-02-23T10:16:45.074Z,9.11
2017-02-23T10:17:45.062Z,8.92
2017-02-23T10:18:45.065Z,9.58
2017-02-23T10:19:45.038Z,9.58
2017-02-23T10:20:45.029Z,9.48
2017-02-23T10:21:45.018Z,10.91
2017-02-23T10:22:45.007Z,11.57
2017-02-23T10:23:44.996Z,14.51
2017-02-23T10:24:44.979Z,14.42
2017-02-23T10:25:44.968Z,16.03
2017-02-23T10:26:44.973Z,18.88
2017-02-23T10:27:44.944Z,17.17
2017-02-23T10:28:44.933Z,19.07
2017-02-23T10:29:44.527Z,18.6
2017-02-23T10:30:44.911Z,19.83
2017-02-23T10:31:44.901Z,20.87
2017-02-23T10:32:44.884Z,22.11
2017-02-23T10:33:44.874Z,20.97
2017-02-23T10:34:44.468Z,21.92
2017-02-23T10:35:44.862Z,23.24
2017-02-23T10:36:44.839Z,26.76
2017-02-23T10:37:44.827Z,27.42
2017-02-23T10:38:44.812Z,25.81
2017-02-23T10:39:44.415Z,25.81
2017-02-23T10:40:44.790Z,25.71
2017-02-23T10:41:44.794Z,25.71
2017-02-23T10:42:44.369Z,27.04
2017-02-23T10:43:44.769Z,27.33
2017-02-23T10:44:44.742Z,26.66
2017-02-23T10:45:44.735Z,26.09
2017-02-23T10:46:44.725Z,25.99
2017-02-23T10:47:44.712Z,25.81
2017-02-23T10:48:44.695Z,24.67
2017-02-23T10:49:44.683Z,24.19
2017-02-23T10:50:44.672Z,25.81
2017-02-23T10:51:44.672Z,25.71
2017-02-23T10:52:44.646Z,23.53
2017-02-23T10:53:44.636Z,25.62
2017-02-23T10:54:44.630Z,27.33
2017-02-23T10:55:44.614Z,27.33
2017-02-23T10:56:44.600Z,27.99
2017-02-23T10:57:44.600Z,31.5
2017-02-23T10:58:44.590Z,33.87
2017-02-23T10:59:44.564Z,33.5
2017-02-23T11:00:44.560Z,30.55
2017-02-23T11:01:44.543Z,31.02
2017-02-23T11:02:44.531Z,30.55
2017-02-23T11:03:44.518Z,33.69
2017-02-23T11:04:44.518Z,33.97
2017-02-23T11:05:44.494Z,35.77
2017-02-23T11:06:44.483Z,35.11
2017-02-23T11:07:44.471Z,34.44
2017-02-23T11:08:44.458Z,33.5
2017-02-23T11:09:44.449Z,34.73
2017-02-23T11:10:44.437Z,33.21
2017-02-23T11:11:44.424Z,35.96
2017-02-23T11:12:44.415Z,36.44
2017-02-23T11:13:44.398Z,37.19
2017-02-23T11:14:44.392Z,38.43
2017-02-23T11:15:44.379Z,38.62
2017-02-23T11:16:44.365Z,39
2017-02-23T11:17:44.354Z,37.38
2017-02-23T11:18:44.338Z,40.33
2017-02-23T11:19:44.337Z,41.18
2017-02-23T11:20:44.316Z,40.42
2017-02-23T11:21:43.909Z,38.81
2017-02-23T11:22:44.295Z,37.38
2017-02-23T11:23:44.306Z,39.37
2017-02-23T11:24:44.266Z,39.37
2017-02-23T11:25:44.263Z,42.79
2017-02-23T11:26:44.245Z,42.03
2017-02-23T11:27:44.232Z,40.23
2017-02-23T11:28:44.226Z,40.61
2017-02-23T11:29:44.220Z,43.93
2017-02-23T11:30:44.232Z,43.84
2017-02-23T11:31:44.187Z,46.69
2017-02-23T11:32:44.176Z,44.31
2017-02-23T11:33:44.173Z,46.69
2017-02-23T11:34:44.162Z,48.86
2017-02-23T11:35:44.142Z,47.34
2017-02-23T11:36:44.129Z,46.49
2017-02-23T11:37:44.126Z,47.73
2017-02-23T11:38:44.110Z,44.79
2017-02-23T11:39:44.094Z,47.63
2017-02-23T11:40:44.089Z,48.49
2017-02-23T11:41:43.681Z,48.41
2017-02-23T11:42:44.066Z,53.73
2017-02-23T11:43:44.046Z,53.64
2017-02-23T11:44:44.033Z,56.2
2017-02-23T11:45:44.023Z,64.17
2017-02-23T11:46:44.024Z,60.47
2017-02-23T11:47:44.001Z,65.69
2017-02-23T11:48:43.986Z,66.17
2017-02-23T11:49:43.986Z,65.88
2017-02-23T11:50:43.965Z,69.02
2017-02-23T11:51:43.953Z,76.14
2017-02-23T11:52:43.941Z,74.05
2017-02-23T11:53:43.930Z,70.25
2017-02-23T11:54:43.945Z,72.91
2017-02-23T11:55:43.907Z,75
2017-02-23T11:56:43.506Z,75.32
2017-02-23T11:57:43.886Z,73.23
2017-02-23T11:58:43.884Z,72.56
2017-02-23T11:59:43.464Z,72.47
2017-02-23T12:00:43.849Z,76.08
2017-02-23T12:01:43.840Z,76.46
2017-02-23T12:02:43.829Z,78.45
2017-02-23T12:03:43.817Z,74.85
2017-02-23T12:04:43.410Z,72.95
2017-02-23T12:05:43.796Z,82.07
2017-02-23T12:06:43.784Z,77.98
2017-02-23T12:07:43.775Z,76.46
2017-02-23T12:08:43.764Z,77.12
2017-02-23T12:09:43.770Z,76.75
2017-02-23T12:10:43.742Z,75.79
2017-02-23T12:11:43.731Z,75.99
2017-02-23T12:12:43.324Z,77.03
2017-02-23T12:13:43.717Z,78.27
2017-02-23T12:14:43.705Z,79.6
2017-02-23T12:15:43.690Z,82.26
2017-02-23T12:16:43.286Z,84.86
2017-02-23T12:17:43.667Z,83.25
2017-02-23T12:18:43.667Z,83.53
2017-02-23T12:19:43.646Z,82.77
2017-02-23T12:20:43.634Z,85.53
2017-02-23T12:21:43.625Z,84.1
2017-02-23T12:22:43.632Z,84.39
2017-02-23T12:23:43.602Z,86.38
2017-02-23T12:24:43.592Z,83.72
2017-02-23T12:25:43.583Z,82.39
2017-02-23T12:26:43.577Z,88.57
2017-02-23T12:27:43.566Z,86.1
2017-02-23T12:28:43.154Z,85.81
2017-02-23T12:29:43.543Z,90.37
2017-02-23T12:30:43.135Z,90.66
2017-02-23T12:31:43.522Z,89.23
2017-02-23T12:32:43.523Z,90.47
2017-02-23T12:33:43.500Z,88.09
2017-02-23T12:34:43.491Z,88.85
2017-02-23T12:35:43.490Z,91.33
2017-02-23T12:36:43.471Z,89.71
2017-02-23T12:37:43.462Z,90.19
2017-02-23T12:38:43.464Z,88.28
2017-02-23T12:39:43.453Z,91.23
2017-02-23T12:40:43.431Z,91.99
2017-02-23T12:41:43.434Z,92.94
2017-02-23T12:42:43.410Z,93.89
2017-02-23T12:43:43.402Z,93.04
2017-02-23T12:44:43.392Z,94.37
2017-02-23T12:45:43.383Z,95.41
2017-02-23T12:46:43.396Z,95.7
2017-02-23T12:47:43.362Z,93.7
2017-02-23T12:48:43.353Z,96.36
2017-02-23T12:49:43.344Z,95.6
2017-02-23T12:50:43.334Z,98.93
2017-02-23T12:51:43.323Z,96.74
2017-02-23T12:52:43.315Z,96.41
2017-02-23T12:53:43.303Z,99.99
2017-02-23T12:54:43.296Z,99.74
2017-02-23T12:55:43.284Z,96.55
2017-02-23T12:56:43.278Z,99.99
2017-02-23T12:57:43.265Z,99.99
2017-02-23T12:58:43.257Z,99.99
2017-02-23T12:59:43.244Z,99.99
2017-02-23T13:00:43.235Z,99.99
2017-02-23T13:01:43.229Z,99.99
2017-02-23T13:02:43.217Z,99.99
2017-02-23T13:03:43.207Z,99.99
2017-02-23T13:04:43.197Z,99.99
2017-02-23T13:05:43.187Z,99.99
2017-02-23T13:06:42.787Z,99.99
2017-02-23T13:07:43.170Z,99.99
2017-02-23T13:08:43.161Z,99.99
2017-02-23T13:09:43.156Z,99.99
2017-02-23T13:10:43.140Z,99.99
2017-02-23T13:11:43.135Z,99.99
2017-02-23T13:12:43.120Z,99.99
2017-02-23T13:13:43.128Z,99.99
2017-02-23T13:14:43.103Z,99.99
2017-02-23T13:15:43.092Z,99.99
2017-02-23T13:16:43.084Z,99.99
2017-02-23T13:17:43.085Z,99.99
2017-02-23T13:18:43.075Z,99.99
2017-02-23T13:19:43.057Z,99.99
2017-02-23T13:20:43.045Z,99.99
2017-02-23T13:21:43.053Z,99.99
2017-02-23T13:22:43.034Z,99.99
2017-02-23T13:23:43.025Z,99.99
2017-02-23T13:24:43.014Z,99.99
2017-02-23T13:25:43.017Z,99.99
2017-02-23T13:26:42.991Z,99.99
2017-02-23T13:27:42.982Z,99.99
2017-02-23T13:28:42.976Z,99.99
2017-02-23T13:29:42.966Z,99.99
2017-02-23T13:30:42.954Z,99.99
2017-02-23T13:31:42.954Z,99.99
2017-02-23T13:32:42.942Z,99.99
2017-02-23T13:33:42.930Z,99.99
2017-02-23T13:34:42.949Z,99.99
2017-02-23T13:35:42.911Z,99.99
2017-02-23T13:36:42.926Z,99.99
2017-02-23T13:37:42.907Z,99.99
2017-02-23T13:38:42.884Z,99.99
2017-02-23T13:39:42.871Z,99.99
2017-02-23T13:40:42.869Z,99.99
2017-02-23T13:41:42.865Z,99.99
2017-02-23T13:42:42.859Z,99.99
2017-02-23T13:43:42.836Z,99.99